createdAt,value
2022-12-01T00:01:10.587Z,102742.00
2022-12-01T00:03:37.380Z,102747.00
2022-12-01T00:06:10.969Z,102740.00
2022-12-01T00:08:37.810Z,102742.00
2022-12-01T00:11:09.926Z,102732.00
2022-12-01T00:13:36.755Z,102743.00
2022-12-01T00:16:17.053Z,102738.00
2022-12-01T00:18:44.190Z,102742.00
2022-12-01T00:21:19.018Z,102740.00
2022-12-01T00:23:47.637Z,102737.00
2022-12-01T00:26:15.955Z,102739.00
2022-12-01T00:28:42.639Z,102743.00
2022-12-01T00:31:11.016Z,102748.00
2022-12-01T00:33:37.880Z,102747.00
2022-12-01T00:36:05.570Z,102744.00
2022-12-01T00:38:33.077Z,102747.00
2022-12-01T00:40:59.666Z,102752.00
2022-12-01T00:43:26.271Z,102755.00
2022-12-01T00:45:52.925Z,102747.00
2022-12-01T00:48:19.580Z,102757.00
2022-12-01T00:50:46.277Z,102756.00
2022-12-01T00:53:13.010Z,102754.00
2022-12-01T00:55:40.404Z,102757.00
2022-12-01T00:58:07.718Z,102758.00
2022-12-01T01:00:34.616Z,102750.00
2022-12-01T01:03:01.677Z,102750.00
2022-12-01T01:05:28.288Z,102747.00
2022-12-01T01:07:54.917Z,102750.00
2022-12-01T01:10:22.769Z,102748.00
2022-12-01T01:12:49.356Z,102750.00
2022-12-01T01:15:16.030Z,102750.00
2022-12-01T01:17:42.729Z,102755.00
2022-12-01T01:20:09.901Z,102753.00
2022-12-01T01:22:36.452Z,102763.00
2022-12-01T01:25:03.079Z,102748.00
2022-12-01T01:27:29.679Z,102760.00
2022-12-01T01:29:56.294Z,102756.00
2022-12-01T01:32:22.948Z,102758.00
2022-12-01T01:34:49.588Z,102760.00
2022-12-01T01:37:16.224Z,102758.00
2022-12-01T01:39:42.771Z,102758.00
2022-12-01T01:42:13.429Z,102752.00
2022-12-01T01:44:57.439Z,102755.00
2022-12-01T01:47:33.357Z,102760.00
2022-12-01T01:50:06.629Z,102748.00
2022-12-01T01:52:40.998Z,102744.00
2022-12-01T01:55:08.071Z,102747.00
2022-12-01T01:57:35.348Z,102752.00
2022-12-01T02:00:08.782Z,102754.00
2022-12-01T02:02:40.669Z,102750.00
2022-12-01T02:05:12.130Z,102763.00
2022-12-01T02:07:40.255Z,102757.00
2022-12-01T02:10:10.565Z,102757.00
2022-12-01T02:13:16.022Z,102749.00
2022-12-01T02:15:53.170Z,102737.00
2022-12-01T02:18:25.842Z,102740.00
2022-12-01T02:21:14.145Z,102749.00
2022-12-01T02:23:59.258Z,102755.00
2022-12-01T02:26:55.185Z,102759.00
2022-12-01T02:29:33.825Z,102764.00
2022-12-01T02:32:24.122Z,102767.00
2022-12-01T02:35:08.714Z,102766.00
2022-12-01T02:37:38.279Z,102762.00
2022-12-01T02:40:33.711Z,102769.00
2022-12-01T02:43:09.610Z,102779.00
2022-12-01T02:45:44.916Z,102764.00
2022-12-01T02:48:16.360Z,102746.00
2022-12-01T02:50:45.297Z,102745.00
2022-12-01T02:53:17.440Z,102747.00
2022-12-01T02:55:49.319Z,102753.00
2022-12-01T02:58:16.291Z,102753.00
2022-12-01T03:00:56.881Z,102752.00
2022-12-01T03:03:37.054Z,102752.00
2022-12-01T03:06:15.253Z,102758.00
2022-12-01T03:09:04.913Z,102763.00
2022-12-01T03:11:42.101Z,102764.00
2022-12-01T03:14:15.205Z,102778.00
2022-12-01T03:16:51.303Z,102771.00
2022-12-01T03:19:36.032Z,102775.00
2022-12-01T03:22:08.702Z,102774.00
2022-12-01T03:24:37.717Z,102782.00
2022-12-01T03:27:06.027Z,102776.00
2022-12-01T03:29:44.970Z,102774.00
2022-12-01T03:32:24.418Z,102775.00
2022-12-01T03:35:16.233Z,102773.00
2022-12-01T03:37:57.557Z,102773.00
2022-12-01T03:40:27.294Z,102766.00
2022-12-01T03:43:13.834Z,102775.00
2022-12-01T03:45:51.874Z,102777.00
2022-12-01T03:48:18.963Z,102769.00
2022-12-01T03:50:56.800Z,102774.00
2022-12-01T03:53:29.933Z,102775.00
2022-12-01T03:56:02.466Z,102780.00
2022-12-01T03:58:35.174Z,102782.00
2022-12-01T04:01:05.258Z,102786.00
2022-12-01T04:03:32.002Z,102782.00
2022-12-01T04:05:59.297Z,102779.00
2022-12-01T04:08:26.167Z,102776.00
2022-12-01T04:10:52.820Z,102782.00
2022-12-01T04:13:25.865Z,102785.00
2022-12-01T04:15:54.103Z,102779.00
2022-12-01T04:18:21.486Z,102792.00
2022-12-01T04:20:49.599Z,102787.00
2022-12-01T04:23:36.142Z,102779.00
2022-12-01T04:26:04.386Z,102784.00
2022-12-01T04:28:31.003Z,102790.00
2022-12-01T04:30:57.614Z,102784.00
2022-12-01T04:33:24.452Z,102789.00
2022-12-01T04:36:00.607Z,102787.00
2022-12-01T04:38:30.855Z,102790.00
2022-12-01T04:40:58.107Z,102787.00
2022-12-01T04:43:24.884Z,102782.00
2022-12-01T04:45:51.430Z,102784.00
2022-12-01T04:48:18.074Z,102786.00
2022-12-01T04:50:44.657Z,102780.00
2022-12-01T04:53:11.258Z,102777.00
2022-12-01T04:55:39.180Z,102783.00
2022-12-01T04:58:06.571Z,102769.00
2022-12-01T05:00:33.734Z,102769.00
2022-12-01T05:03:00.782Z,102773.00
2022-12-01T05:05:27.659Z,102767.00
2022-12-01T05:07:54.287Z,102775.00
2022-12-01T05:10:21.606Z,102771.00
2022-12-01T05:12:48.198Z,102777.00
2022-12-01T05:15:14.812Z,102784.00
2022-12-01T05:17:43.852Z,102777.00
2022-12-01T05:20:37.637Z,102774.00
2022-12-01T05:23:06.116Z,102773.00
2022-12-01T05:25:33.778Z,102780.00
2022-12-01T05:28:00.567Z,102780.00
2022-12-01T05:30:28.988Z,102776.00
2022-12-01T05:32:55.812Z,102773.00
2022-12-01T05:35:22.444Z,102773.00
2022-12-01T05:37:49.031Z,102776.00
2022-12-01T05:40:15.722Z,102783.00
2022-12-01T05:42:42.292Z,102784.00
2022-12-01T05:45:09.315Z,102777.00
2022-12-01T05:47:35.894Z,102775.00
2022-12-01T05:50:05.691Z,102780.00
2022-12-01T05:52:35.320Z,102785.00
2022-12-01T05:55:03.663Z,102788.00
2022-12-01T05:57:31.456Z,102788.00
2022-12-01T05:59:58.270Z,102793.00
2022-12-01T06:02:26.887Z,102794.00
2022-12-01T06:04:53.686Z,102795.00
2022-12-01T06:07:21.032Z,102794.00
2022-12-01T06:09:48.135Z,102786.00
2022-12-01T06:12:15.027Z,102786.00
2022-12-01T06:14:41.683Z,102782.00
2022-12-01T06:17:08.337Z,102785.00
2022-12-01T06:19:34.928Z,102788.00
2022-12-01T06:22:01.625Z,102800.00
2022-12-01T06:24:28.324Z,102789.00
2022-12-01T06:26:54.950Z,102791.00
2022-12-01T06:29:21.632Z,102799.00
2022-12-01T06:31:48.304Z,102793.00
2022-12-01T06:34:15.056Z,102800.00
2022-12-01T06:36:41.686Z,102799.00
2022-12-01T06:39:12.272Z,102801.00
2022-12-01T06:41:39.248Z,102803.00
2022-12-01T06:44:05.977Z,102806.00
2022-12-01T06:46:32.722Z,102794.00
2022-12-01T06:48:59.540Z,102800.00
2022-12-01T06:51:26.906Z,102797.00
2022-12-01T06:54:02.149Z,102802.00
2022-12-01T06:56:31.976Z,102794.00
2022-12-01T06:58:58.887Z,102807.00
2022-12-01T07:01:26.230Z,102806.00
2022-12-01T07:03:52.904Z,102804.00
2022-12-01T07:06:19.549Z,102814.00
2022-12-01T07:08:46.220Z,102811.00
2022-12-01T07:11:15.071Z,102815.00
2022-12-01T07:13:45.306Z,102812.00
2022-12-01T07:16:12.342Z,102814.00
2022-12-01T07:18:39.138Z,102817.00
2022-12-01T07:21:08.757Z,102835.00
2022-12-01T07:23:35.699Z,102831.00
2022-12-01T07:26:08.288Z,102832.00
2022-12-01T07:28:34.879Z,102830.00
2022-12-01T07:31:07.098Z,102837.00
2022-12-01T07:33:34.350Z,102837.00
2022-12-01T07:36:01.223Z,102840.00
2022-12-01T07:38:29.763Z,102842.00
2022-12-01T07:41:11.187Z,102846.00
2022-12-01T07:43:38.328Z,102849.00
2022-12-01T07:46:08.895Z,102847.00
2022-12-01T07:48:37.320Z,102850.00
2022-12-01T07:51:05.342Z,102858.00
2022-12-01T07:53:32.610Z,102848.00
2022-12-01T07:56:04.215Z,102850.00
2022-12-01T07:58:33.640Z,102851.00
2022-12-01T08:01:06.913Z,102846.00
2022-12-01T08:03:33.780Z,102842.00
2022-12-01T08:06:01.765Z,102852.00
2022-12-01T08:08:28.553Z,102848.00
2022-12-01T08:11:00.673Z,102848.00
2022-12-01T08:13:27.826Z,102851.00
2022-12-01T08:15:54.540Z,102846.00
2022-12-01T08:18:21.550Z,102850.00
2022-12-01T08:20:48.146Z,102846.00
2022-12-01T08:23:14.899Z,102849.00
2022-12-01T08:25:41.477Z,102845.00
2022-12-01T08:28:08.110Z,102850.00
2022-12-01T08:30:34.673Z,102845.00
2022-12-01T08:33:01.259Z,102855.00
2022-12-01T08:35:27.951Z,102849.00
2022-12-01T08:37:54.725Z,102857.00
2022-12-01T08:40:21.893Z,102859.00
2022-12-01T08:42:48.503Z,102857.00
2022-12-01T08:45:15.311Z,102859.00
2022-12-01T08:47:41.874Z,102857.00
2022-12-01T08:50:08.904Z,102853.00
2022-12-01T08:52:35.687Z,102861.00
2022-12-01T08:55:03.224Z,102859.00
2022-12-01T08:57:30.309Z,102866.00
2022-12-01T08:59:56.977Z,102874.00
2022-12-01T09:02:23.818Z,102875.00
2022-12-01T09:04:51.264Z,102867.00
2022-12-01T09:07:24.577Z,102870.00
2022-12-01T09:09:53.065Z,102872.00
2022-12-01T09:12:19.898Z,102868.00
2022-12-01T09:14:48.274Z,102868.00
2022-12-01T09:17:16.657Z,102861.00
2022-12-01T09:19:44.357Z,102865.00
2022-12-01T09:22:11.689Z,102869.00
2022-12-01T09:24:38.842Z,102872.00
2022-12-01T09:27:05.763Z,102872.00
2022-12-01T09:29:33.090Z,102876.00
2022-12-01T09:32:00.603Z,102878.00
2022-12-01T09:34:29.148Z,102873.00
2022-12-01T09:36:57.688Z,102875.00
2022-12-01T09:39:24.971Z,102876.00
2022-12-01T09:42:09.088Z,102874.00
2022-12-01T09:44:36.071Z,102876.00
2022-12-01T09:47:27.043Z,102869.00
2022-12-01T09:49:58.867Z,102866.00
2022-12-01T09:52:28.760Z,102876.00
2022-12-01T09:54:59.271Z,102881.00
2022-12-01T09:57:38.426Z,102878.00
2022-12-01T10:00:12.705Z,102879.00
2022-12-01T10:02:52.813Z,102876.00
2022-12-01T10:05:22.429Z,102871.00
2022-12-01T10:07:56.504Z,102869.00
2022-12-01T10:10:42.648Z,102862.00
2022-12-01T10:13:35.774Z,102864.00
2022-12-01T10:16:14.032Z,102865.00
2022-12-01T10:18:46.558Z,102869.00
2022-12-01T10:21:35.361Z,102868.00
2022-12-01T10:24:21.301Z,102869.00
2022-12-01T10:27:15.184Z,102864.00
2022-12-01T10:30:05.702Z,102859.00
2022-12-01T10:32:55.443Z,102853.00
2022-12-01T10:35:36.093Z,102856.00
2022-12-01T10:38:06.889Z,102854.00
2022-12-01T10:40:36.709Z,102854.00
2022-12-01T10:43:03.586Z,102857.00
2022-12-01T10:45:37.234Z,102854.00
2022-12-01T10:48:23.117Z,102851.00
2022-12-01T10:50:50.913Z,102856.00
2022-12-01T10:53:23.442Z,102854.00
2022-12-01T10:56:01.817Z,102850.00
2022-12-01T10:58:28.806Z,102851.00
2022-12-01T11:01:00.091Z,102847.00
2022-12-01T11:03:31.679Z,102849.00
2022-12-01T11:06:01.214Z,102845.00
2022-12-01T11:08:40.143Z,102841.00
2022-12-01T11:11:26.131Z,102853.00
2022-12-01T11:13:54.057Z,102851.00
2022-12-01T11:16:52.077Z,102844.00
2022-12-01T11:19:32.768Z,102841.00
2022-12-01T11:22:01.773Z,102843.00
2022-12-01T11:24:42.232Z,102836.00
2022-12-01T11:27:23.625Z,102829.00
2022-12-01T11:29:54.500Z,102827.00
2022-12-01T11:32:29.047Z,102830.00
2022-12-01T11:34:59.093Z,102821.00
2022-12-01T11:37:32.838Z,102825.00
2022-12-01T11:40:20.589Z,102819.00
2022-12-01T11:42:52.765Z,102822.00
2022-12-01T11:45:22.135Z,102828.00
2022-12-01T11:48:25.749Z,102818.00
2022-12-01T11:51:24.217Z,102816.00
2022-12-01T11:54:05.927Z,102811.00
2022-12-01T11:56:32.708Z,102808.00
2022-12-01T11:59:03.118Z,102811.00
2022-12-01T12:01:48.424Z,102807.00
2022-12-01T12:04:45.870Z,102804.00
2022-12-01T12:07:30.561Z,102799.00
2022-12-01T12:10:29.459Z,102808.00
2022-12-01T12:13:07.956Z,102794.00
2022-12-01T12:15:43.416Z,102797.00
2022-12-01T12:18:48.627Z,102800.00
2022-12-01T12:21:15.136Z,102794.00
2022-12-01T12:24:25.792Z,102790.00
2022-12-01T12:27:24.705Z,102786.00
2022-12-01T12:30:24.327Z,102786.00
2022-12-01T12:33:08.834Z,102789.00
2022-12-01T12:35:51.113Z,102799.00
2022-12-01T12:38:29.907Z,102794.00
2022-12-01T12:41:11.873Z,102796.00
2022-12-01T12:43:44.280Z,102793.00
2022-12-01T12:46:12.096Z,102790.00
2022-12-01T12:49:18.687Z,102795.00
2022-12-01T12:51:50.749Z,102796.00
2022-12-01T12:54:31.536Z,102787.00
2022-12-01T12:57:04.873Z,102781.00
2022-12-01T12:59:45.174Z,102782.00
2022-12-01T13:02:27.265Z,102777.00
2022-12-01T13:05:06.845Z,102784.00
2022-12-01T13:07:58.621Z,102777.00
2022-12-01T13:10:58.089Z,102778.00
2022-12-01T13:14:00.401Z,102781.00
2022-12-01T13:16:38.042Z,102773.00
2022-12-01T13:19:15.007Z,102763.00
2022-12-01T13:21:44.649Z,102764.00
2022-12-01T13:24:19.823Z,102763.00
2022-12-01T13:26:53.493Z,102759.00
2022-12-01T13:29:23.953Z,102757.00
2022-12-01T13:31:53.430Z,102751.00
2022-12-01T13:34:26.205Z,102750.00
2022-12-01T13:36:55.081Z,102748.00
2022-12-01T13:39:23.573Z,102752.00
2022-12-01T13:41:59.421Z,102749.00
2022-12-01T13:44:31.132Z,102755.00
2022-12-01T13:47:09.473Z,102745.00
2022-12-01T13:49:49.731Z,102736.00
2022-12-01T13:52:22.500Z,102746.00
2022-12-01T13:55:15.394Z,102743.00
2022-12-01T13:57:49.005Z,102737.00
2022-12-01T14:00:24.164Z,102741.00
2022-12-01T14:03:12.884Z,102738.00
2022-12-01T14:05:39.725Z,102734.00
2022-12-01T14:08:27.861Z,102742.00
2022-12-01T14:11:03.148Z,102744.00
2022-12-01T14:13:31.612Z,102742.00
2022-12-01T14:16:00.461Z,102747.00
2022-12-01T14:18:48.490Z,102747.00
2022-12-01T14:21:15.271Z,102739.00
2022-12-01T14:24:05.083Z,102749.00
2022-12-01T14:26:32.309Z,102747.00
2022-12-01T14:29:01.818Z,102742.00
2022-12-01T14:31:34.360Z,102742.00
2022-12-01T14:34:24.389Z,102729.00
2022-12-01T14:36:58.659Z,102731.00
2022-12-01T14:39:29.188Z,102723.00
2022-12-01T14:42:02.842Z,102723.00
2022-12-01T14:44:31.528Z,102726.00
2022-12-01T14:47:12.717Z,102734.00
2022-12-01T14:49:46.833Z,102729.00
2022-12-01T14:52:28.468Z,102744.00
2022-12-01T14:55:05.749Z,102737.00
2022-12-01T14:57:37.696Z,102728.00
2022-12-01T15:00:04.809Z,102729.00
2022-12-01T15:02:31.559Z,102730.00
2022-12-01T15:05:09.393Z,102730.00
2022-12-01T15:07:41.052Z,102732.00
2022-12-01T15:10:22.507Z,102728.00
2022-12-01T15:12:50.591Z,102728.00
2022-12-01T15:15:26.692Z,102729.00
2022-12-01T15:17:55.735Z,102726.00
2022-12-01T15:20:35.970Z,102732.00
2022-12-01T15:23:12.086Z,102734.00
2022-12-01T15:25:42.810Z,102731.00
2022-12-01T15:28:17.354Z,102739.00
2022-12-01T15:30:47.789Z,102743.00
2022-12-01T15:33:27.817Z,102738.00
2022-12-01T15:35:57.114Z,102745.00
2022-12-01T15:38:35.465Z,102742.00
2022-12-01T15:41:28.571Z,102739.00
2022-12-01T15:44:00.513Z,102736.00
2022-12-01T15:46:29.906Z,102744.00
2022-12-01T15:49:16.245Z,102743.00
2022-12-01T15:51:43.127Z,102749.00
2022-12-01T15:54:19.348Z,102752.00
2022-12-01T15:56:46.726Z,102747.00
2022-12-01T15:59:13.260Z,102750.00
2022-12-01T16:01:42.851Z,102748.00
2022-12-01T16:04:21.460Z,102750.00
2022-12-01T16:06:58.076Z,102743.00
2022-12-01T16:09:39.596Z,102745.00
2022-12-01T16:12:18.137Z,102741.00
2022-12-01T16:14:55.202Z,102740.00
2022-12-01T16:17:23.360Z,102737.00
2022-12-01T16:20:18.857Z,102746.00
2022-12-01T16:22:47.360Z,102738.00
2022-12-01T16:25:21.630Z,102740.00
2022-12-01T16:27:53.805Z,102745.00
2022-12-01T16:30:23.510Z,102747.00
2022-12-01T16:32:50.335Z,102743.00
2022-12-01T16:35:22.531Z,102742.00
2022-12-01T16:37:49.134Z,102745.00
2022-12-01T16:40:16.943Z,102750.00
2022-12-01T16:42:43.642Z,102750.00
2022-12-01T16:45:14.735Z,102750.00
2022-12-01T16:47:42.533Z,102755.00
2022-12-01T16:50:26.923Z,102743.00
2022-12-01T16:52:53.645Z,102745.00
2022-12-01T16:55:33.252Z,102747.00
2022-12-01T16:58:01.133Z,102736.00
2022-12-01T17:00:29.390Z,102745.00
2022-12-01T17:02:57.187Z,102754.00
2022-12-01T17:05:23.898Z,102749.00
2022-12-01T17:07:51.114Z,102759.00
2022-12-01T17:10:17.955Z,102764.00
2022-12-01T17:12:44.559Z,102756.00
2022-12-01T17:15:11.263Z,102765.00
2022-12-01T17:17:38.161Z,102757.00
2022-12-01T17:20:06.513Z,102769.00
2022-12-01T17:22:33.125Z,102760.00
2022-12-01T17:25:02.314Z,102757.00
2022-12-01T17:27:31.449Z,102756.00
2022-12-01T17:30:01.580Z,102748.00
2022-12-01T17:32:28.499Z,102758.00
2022-12-01T17:34:55.072Z,102750.00
2022-12-01T17:37:21.928Z,102749.00
2022-12-01T17:39:49.885Z,102749.00
2022-12-01T17:42:16.936Z,102753.00
2022-12-01T17:44:43.580Z,102744.00
2022-12-01T17:47:10.398Z,102750.00
2022-12-01T17:49:37.229Z,102758.00
2022-12-01T17:52:05.523Z,102755.00
2022-12-01T17:54:32.137Z,102752.00
2022-12-01T17:56:58.850Z,102745.00
2022-12-01T17:59:25.698Z,102753.00
2022-12-01T18:01:52.400Z,102751.00
2022-12-01T18:04:19.046Z,102754.00
2022-12-01T18:06:49.330Z,102760.00
2022-12-01T18:09:20.262Z,102750.00
2022-12-01T18:11:48.711Z,102750.00
2022-12-01T18:14:17.837Z,102750.00
2022-12-01T18:16:45.186Z,102746.00
2022-12-01T18:19:12.401Z,102747.00
2022-12-01T18:21:39.867Z,102744.00
2022-12-01T18:24:09.018Z,102749.00
2022-12-01T18:26:37.563Z,102744.00
2022-12-01T18:29:18.706Z,102743.00
2022-12-01T18:31:45.994Z,102739.00
2022-12-01T18:34:12.567Z,102733.00
2022-12-01T18:36:40.587Z,102735.00
2022-12-01T18:39:08.917Z,102732.00
2022-12-01T18:41:36.102Z,102735.00
2022-12-01T18:44:03.421Z,102742.00
2022-12-01T18:46:30.181Z,102733.00
2022-12-01T18:49:04.765Z,102748.00
2022-12-01T18:51:34.237Z,102751.00
2022-12-01T18:54:02.301Z,102748.00
2022-12-01T18:56:29.643Z,102748.00
2022-12-01T18:58:57.895Z,102761.00
2022-12-01T19:01:28.798Z,102749.00
2022-12-01T19:03:56.093Z,102749.00
2022-12-01T19:06:23.187Z,102750.00
2022-12-01T19:08:49.938Z,102756.00
2022-12-01T19:11:16.831Z,102749.00
2022-12-01T19:13:43.740Z,102754.00
2022-12-01T19:16:13.423Z,102755.00
2022-12-01T19:18:40.153Z,102742.00
2022-12-01T19:21:08.390Z,102740.00
2022-12-01T19:23:35.369Z,102744.00
2022-12-01T19:26:11.613Z,102749.00
2022-12-01T19:28:38.829Z,102746.00
2022-12-01T19:31:13.945Z,102753.00
2022-12-01T19:33:41.233Z,102754.00
2022-12-01T19:36:13.673Z,102743.00
2022-12-01T19:38:40.468Z,102744.00
2022-12-01T19:41:08.354Z,102740.00
2022-12-01T19:43:35.606Z,102746.00
2022-12-01T19:46:11.248Z,102746.00
2022-12-01T19:48:37.968Z,102740.00
2022-12-01T19:51:04.984Z,102741.00
2022-12-01T19:53:33.860Z,102750.00
2022-12-01T19:56:02.687Z,102746.00
2022-12-01T19:58:29.676Z,102745.00
2022-12-01T20:01:05.838Z,102738.00
2022-12-01T20:03:32.670Z,102736.00
2022-12-01T20:06:04.501Z,102736.00
2022-12-01T20:08:35.510Z,102738.00
2022-12-01T20:11:04.298Z,102731.00
2022-12-01T20:13:35.552Z,102732.00
2022-12-01T20:16:04.798Z,102735.00
2022-12-01T20:18:32.088Z,102725.00
2022-12-01T20:21:09.351Z,102731.00
2022-12-01T20:23:36.575Z,102726.00
2022-12-01T20:26:06.662Z,102730.00
2022-12-01T20:28:33.969Z,102732.00
2022-12-01T20:31:00.735Z,102733.00
2022-12-01T20:33:27.850Z,102736.00
2022-12-01T20:35:54.494Z,102730.00
2022-12-01T20:38:27.068Z,102722.00
2022-12-01T20:40:54.454Z,102725.00
2022-12-01T20:43:21.230Z,102733.00
2022-12-01T20:45:48.095Z,102731.00
2022-12-01T20:48:14.863Z,102733.00
2022-12-01T20:50:41.650Z,102733.00
2022-12-01T20:53:08.362Z,102736.00
2022-12-01T20:55:36.892Z,102731.00
2022-12-01T20:58:04.973Z,102723.00
2022-12-01T21:00:31.655Z,102723.00
2022-12-01T21:02:58.225Z,102725.00
2022-12-01T21:05:25.734Z,102723.00
2022-12-01T21:07:52.782Z,102728.00
2022-12-01T21:10:20.289Z,102716.00
2022-12-01T21:13:09.551Z,102713.00
2022-12-01T21:15:46.591Z,102717.00
2022-12-01T21:18:23.461Z,102709.00
2022-12-01T21:20:55.262Z,102714.00
2022-12-01T21:23:21.952Z,102714.00
2022-12-01T21:25:49.298Z,102714.00
2022-12-01T21:28:18.423Z,102718.00
2022-12-01T21:30:47.023Z,102717.00
2022-12-01T21:33:27.527Z,102715.00
2022-12-01T21:35:55.900Z,102708.00
2022-12-01T21:38:23.143Z,102706.00
2022-12-01T21:40:49.741Z,102705.00
2022-12-01T21:43:24.071Z,102710.00
2022-12-01T21:45:58.332Z,102699.00
2022-12-01T21:48:25.097Z,102710.00
2022-12-01T21:50:59.081Z,102709.00
2022-12-01T21:53:33.241Z,102700.00
2022-12-01T21:55:59.842Z,102697.00
2022-12-01T21:58:30.675Z,102689.00
2022-12-01T22:00:59.124Z,102687.00
2022-12-01T22:03:33.079Z,102691.00
2022-12-01T22:06:29.865Z,102694.00
2022-12-01T22:09:01.066Z,102687.00
2022-12-01T22:11:29.602Z,102686.00
2022-12-01T22:14:10.850Z,102697.00
2022-12-01T22:16:45.599Z,102695.00
2022-12-01T22:19:15.199Z,102696.00
2022-12-01T22:21:46.779Z,102691.00
2022-12-01T22:24:39.973Z,102689.00
2022-12-01T22:27:13.074Z,102682.00
2022-12-01T22:29:44.192Z,102682.00
2022-12-01T22:32:13.743Z,102679.00
2022-12-01T22:34:45.318Z,102671.00
2022-12-01T22:37:19.458Z,102682.00
2022-12-01T22:39:47.827Z,102674.00
2022-12-01T22:42:21.427Z,102675.00
2022-12-01T22:44:48.178Z,102677.00
2022-12-01T22:47:15.266Z,102672.00
2022-12-01T22:49:42.673Z,102677.00
2022-12-01T22:52:19.532Z,102687.00
2022-12-01T22:54:49.372Z,102679.00
2022-12-01T22:57:26.725Z,102674.00
2022-12-01T22:59:54.712Z,102675.00
2022-12-01T23:02:21.494Z,102671.00
2022-12-01T23:04:51.893Z,102663.00
2022-12-01T23:07:30.456Z,102662.00
2022-12-01T23:10:24.438Z,102659.00
2022-12-01T23:12:53.233Z,102656.00
2022-12-01T23:15:23.646Z,102648.00
2022-12-01T23:17:51.089Z,102656.00
2022-12-01T23:20:20.625Z,102657.00
2022-12-01T23:22:47.955Z,102660.00
2022-12-01T23:25:16.078Z,102656.00
2022-12-01T23:27:44.230Z,102650.00
2022-12-01T23:30:12.292Z,102657.00
2022-12-01T23:32:39.102Z,102653.00
2022-12-01T23:35:10.713Z,102656.00
2022-12-01T23:37:40.033Z,102652.00
2022-12-01T23:40:20.444Z,102644.00
2022-12-01T23:42:47.277Z,102640.00
2022-12-01T23:45:22.745Z,102643.00
2022-12-01T23:47:50.187Z,102643.00
2022-12-01T23:50:21.974Z,102631.00
2022-12-01T23:52:48.626Z,102623.00
2022-12-01T23:55:25.755Z,102624.00
2022-12-01T23:57:53.000Z,102618.00
